Terminal Aerodrome Forecast
Issued by NWS

Home | Current Version | Previous Version | Text Only | Print | Product List | Glossary Off
Versions: 1 2 3 4 5 6 7 8 9 10 11 12 13 14 15 16 17 18 19

000
FTUS43 KICT 280531
TAFSLN
TAF
KSLN 280531Z 2806/0106 15008KT P6SM SCT025 BKN070
     FM281500 16012KT 2SM -SN OVC025
      TEMPO 2815/2819 1/2SM SN OVC007
     FM281900 17012KT 3SM -SN OVC015=

USA.gov is the U.S. government's official web portal to all federal, state and local government web resources and services.